sensor_id;sensor_type;location;lat;lon;timestamp;temperature;humidity
70851;DHT22;58475;49.662;9.636;2022-11-18T00:01:15;8.56;99.99
70851;DHT22;58475;49.662;9.636;2022-11-18T00:03:41;8.56;99.99
70851;DHT22;58475;49.662;9.636;2022-11-18T00:06:13;8.59;99.90
70851;DHT22;58475;49.662;9.636;2022-11-18T00:08:39;8.64;99.80
70851;DHT22;58475;49.662;9.636;2022-11-18T00:11:11;8.64;99.85
70851;DHT22;58475;49.662;9.636;2022-11-18T00:13:37;8.66;99.80
70851;DHT22;58475;49.662;9.636;2022-11-18T00:16:22;8.66;99.84
70851;DHT22;58475;49.662;9.636;2022-11-18T00:18:47;8.69;99.70
70851;DHT22;58475;49.662;9.636;2022-11-18T00:21:13;8.67;99.81
70851;DHT22;58475;49.662;9.636;2022-11-18T00:23:39;8.66;99.87
70851;DHT22;58475;49.662;9.636;2022-11-18T00:26:10;8.64;99.94
70851;DHT22;58475;49.662;9.636;2022-11-18T00:28:36;8.69;99.89
70851;DHT22;58475;49.662;9.636;2022-11-18T00:31:04;8.67;99.90
70851;DHT22;58475;49.662;9.636;2022-11-18T00:33:30;8.67;99.87
70851;DHT22;58475;49.662;9.636;2022-11-18T00:35:56;8.67;99.96
70851;DHT22;58475;49.662;9.636;2022-11-18T00:38:22;8.62;99.99
70851;DHT22;58475;49.662;9.636;2022-11-18T00:40:48;8.63;99.91
70851;DHT22;58475;49.662;9.636;2022-11-18T00:43:13;8.69;99.95
70851;DHT22;58475;49.662;9.636;2022-11-18T00:45:41;8.73;99.71
70851;DHT22;58475;49.662;9.636;2022-11-18T00:48:06;8.74;99.81
70851;DHT22;58475;49.662;9.636;2022-11-18T00:50:32;8.72;99.80
70851;DHT22;58475;49.662;9.636;2022-11-18T00:52:57;8.69;99.79
70851;DHT22;58475;49.662;9.636;2022-11-18T00:55:23;8.63;99.68
70851;DHT22;58475;49.662;9.636;2022-11-18T00:57:48;8.69;99.47
70851;DHT22;58475;49.662;9.636;2022-11-18T01:00:14;8.59;99.55
70851;DHT22;58475;49.662;9.636;2022-11-18T01:02:39;8.55;99.61
70851;DHT22;58475;49.662;9.636;2022-11-18T01:05:05;8.53;99.88
70851;DHT22;58475;49.662;9.636;2022-11-18T01:07:30;8.52;99.99
70851;DHT22;58475;49.662;9.636;2022-11-18T01:09:56;8.52;99.99
70851;DHT22;58475;49.662;9.636;2022-11-18T01:12:22;8.55;99.99
70851;DHT22;58475;49.662;9.636;2022-11-18T01:15:06;8.50;99.99
70851;DHT22;58475;49.662;9.636;2022-11-18T01:17:32;8.48;99.99
70851;DHT22;58475;49.662;9.636;2022-11-18T01:19:58;8.49;99.99
70851;DHT22;58475;49.662;9.636;2022-11-18T01:22:23;8.50;99.99
70851;DHT22;58475;49.662;9.636;2022-11-18T01:24:49;8.52;99.99
70851;DHT22;58475;49.662;9.636;2022-11-18T01:27:14;8.53;99.99
70851;DHT22;58475;49.662;9.636;2022-11-18T01:29:40;8.60;99.99
70851;DHT22;58475;49.662;9.636;2022-11-18T01:32:05;8.60;99.92
70851;DHT22;58475;49.662;9.636;2022-11-18T01:34:31;8.62;99.89
70851;DHT22;58475;49.662;9.636;2022-11-18T01:36:56;8.60;99.94
70851;DHT22;58475;49.662;9.636;2022-11-18T01:39:23;8.62;99.84
70851;DHT22;58475;49.662;9.636;2022-11-18T01:41:48;8.64;99.85
70851;DHT22;58475;49.662;9.636;2022-11-18T01:47:17;8.66;99.74
70851;DHT22;58475;49.662;9.636;2022-11-18T01:49:43;8.64;99.31
70851;DHT22;58475;49.662;9.636;2022-11-18T01:52:09;8.67;99.15
70851;DHT22;58475;49.662;9.636;2022-11-18T01:54:38;8.69;99.08
70851;DHT22;58475;49.662;9.636;2022-11-18T01:57:15;8.70;98.91
70851;DHT22;58475;49.662;9.636;2022-11-18T01:59:45;8.76;98.49
70851;DHT22;58475;49.662;9.636;2022-11-18T02:02:13;8.74;98.31
70851;DHT22;58475;49.662;9.636;2022-11-18T02:04:44;8.76;98.37
70851;DHT22;58475;49.662;9.636;2022-11-18T02:07:12;8.70;98.73
70851;DHT22;58475;49.662;9.636;2022-11-18T02:09:39;8.76;98.28
70851;DHT22;58475;49.662;9.636;2022-11-18T02:12:05;8.76;98.37
70851;DHT22;58475;49.662;9.636;2022-11-18T02:14:35;8.76;97.94
70851;DHT22;58475;49.662;9.636;2022-11-18T02:22:50;8.73;98.19
70851;DHT22;58475;49.662;9.636;2022-11-18T02:25:34;8.73;98.77
70851;DHT22;58475;49.662;9.636;2022-11-18T02:28:34;8.72;98.23
70851;DHT22;58475;49.662;9.636;2022-11-18T02:31:10;8.72;98.91
70851;DHT22;58475;49.662;9.636;2022-11-18T02:34:08;8.70;98.59
70851;DHT22;58475;49.662;9.636;2022-11-18T02:36:51;8.64;99.01
70851;DHT22;58475;49.662;9.636;2022-11-18T02:39:23;8.62;98.87
70851;DHT22;58475;49.662;9.636;2022-11-18T02:42:02;8.66;98.68
70851;DHT22;58475;49.662;9.636;2022-11-18T02:44:29;8.63;98.56
70851;DHT22;58475;49.662;9.636;2022-11-18T02:47:00;8.59;98.63
70851;DHT22;58475;49.662;9.636;2022-11-18T02:49:37;8.60;98.81
70851;DHT22;58475;49.662;9.636;2022-11-18T02:52:04;8.64;98.76
70851;DHT22;58475;49.662;9.636;2022-11-18T02:54:32;8.60;98.79
70851;DHT22;58475;49.662;9.636;2022-11-18T02:56:58;8.59;99.10
70851;DHT22;58475;49.662;9.636;2022-11-18T02:59:26;8.56;98.84
70851;DHT22;58475;49.662;9.636;2022-11-18T03:01:53;8.57;99.20
70851;DHT22;58475;49.662;9.636;2022-11-18T03:04:19;8.59;99.17
70851;DHT22;58475;49.662;9.636;2022-11-18T03:07:30;8.56;99.44
70851;DHT22;58475;49.662;9.636;2022-11-18T03:09:58;8.57;99.23
70851;DHT22;58475;49.662;9.636;2022-11-18T03:21:25;8.55;98.90
70851;DHT22;58475;49.662;9.636;2022-11-18T03:24:08;8.55;98.78
70851;DHT22;58475;49.662;9.636;2022-11-18T03:26:39;8.59;98.49
70851;DHT22;58475;49.662;9.636;2022-11-18T03:29:13;8.55;98.49
70851;DHT22;58475;49.662;9.636;2022-11-18T03:31:44;8.57;98.65
70851;DHT22;58475;49.662;9.636;2022-11-18T03:34:18;8.55;98.79
70851;DHT22;58475;49.662;9.636;2022-11-18T03:36:52;8.53;98.47
70851;DHT22;58475;49.662;9.636;2022-11-18T03:39:21;8.56;98.63
70851;DHT22;58475;49.662;9.636;2022-11-18T03:41:52;8.57;98.67
70851;DHT22;58475;49.662;9.636;2022-11-18T03:44:23;8.48;98.74
70851;DHT22;58475;49.662;9.636;2022-11-18T03:46:58;8.48;98.71
70851;DHT22;58475;49.662;9.636;2022-11-18T03:49:29;8.52;98.64
70851;DHT22;58475;49.662;9.636;2022-11-18T03:52:10;8.50;98.56
70851;DHT22;58475;49.662;9.636;2022-11-18T03:54:39;8.48;98.80
70851;DHT22;58475;49.662;9.636;2022-11-18T03:57:11;8.46;98.71
70851;DHT22;58475;49.662;9.636;2022-11-18T03:59:43;8.41;99.02
70851;DHT22;58475;49.662;9.636;2022-11-18T04:02:22;8.39;99.16
70851;DHT22;58475;49.662;9.636;2022-11-18T04:04:49;8.36;99.14
70851;DHT22;58475;49.662;9.636;2022-11-18T04:10:01;8.39;98.69
70851;DHT22;58475;49.662;9.636;2022-11-18T04:12:30;8.43;98.48
70851;DHT22;58475;49.662;9.636;2022-11-18T04:14:56;8.41;98.65
70851;DHT22;58475;49.662;9.636;2022-11-18T04:17:25;8.41;98.65
70851;DHT22;58475;49.662;9.636;2022-11-18T04:19:51;8.39;98.75
70851;DHT22;58475;49.662;9.636;2022-11-18T04:22:16;8.38;98.70
70851;DHT22;58475;49.662;9.636;2022-11-18T04:24:46;8.35;98.88
70851;DHT22;58475;49.662;9.636;2022-11-18T04:27:12;8.41;98.71
70851;DHT22;58475;49.662;9.636;2022-11-18T04:29:38;8.43;98.49
70851;DHT22;58475;49.662;9.636;2022-11-18T04:32:04;8.32;98.71
70851;DHT22;58475;49.662;9.636;2022-11-18T04:34:30;8.33;98.86
70851;DHT22;58475;49.662;9.636;2022-11-18T04:36:56;8.31;98.63
70851;DHT22;58475;49.662;9.636;2022-11-18T04:39:22;8.35;98.79
70851;DHT22;58475;49.662;9.636;2022-11-18T04:41:47;8.31;99.07
70851;DHT22;58475;49.662;9.636;2022-11-18T04:44:30;8.36;99.30
70851;DHT22;58475;49.662;9.636;2022-11-18T04:46:58;8.33;98.86
70851;DHT22;58475;49.662;9.636;2022-11-18T04:49:25;8.41;98.84
70851;DHT22;58475;49.662;9.636;2022-11-18T04:51:51;8.36;98.38
70851;DHT22;58475;49.662;9.636;2022-11-18T04:54:17;8.36;98.17
70851;DHT22;58475;49.662;9.636;2022-11-18T04:56:43;8.39;97.99
70851;DHT22;58475;49.662;9.636;2022-11-18T04:59:11;8.38;98.05
70851;DHT22;58475;49.662;9.636;2022-11-18T05:01:36;8.32;98.45
70851;DHT22;58475;49.662;9.636;2022-11-18T05:04:03;8.31;98.48
70851;DHT22;58475;49.662;9.636;2022-11-18T05:06:30;8.36;99.04
70851;DHT22;58475;49.662;9.636;2022-11-18T05:09:00;8.33;99.27
70851;DHT22;58475;49.662;9.636;2022-11-18T05:11:26;8.29;99.42
70851;DHT22;58475;49.662;9.636;2022-11-18T05:14:11;8.25;99.49
70851;DHT22;58475;49.662;9.636;2022-11-18T05:16:37;8.28;99.30
70851;DHT22;58475;49.662;9.636;2022-11-18T05:19:03;8.25;99.27
70851;DHT22;58475;49.662;9.636;2022-11-18T05:21:29;8.20;99.55
70851;DHT22;58475;49.662;9.636;2022-11-18T05:23:54;8.25;99.51
70851;DHT22;58475;49.662;9.636;2022-11-18T05:26:20;8.24;99.36
70851;DHT22;58475;49.662;9.636;2022-11-18T05:28:46;8.26;99.29
70851;DHT22;58475;49.662;9.636;2022-11-18T05:31:15;8.35;98.94
70851;DHT22;58475;49.662;9.636;2022-11-18T05:33:41;8.26;98.90
70851;DHT22;58475;49.662;9.636;2022-11-18T05:36:10;8.21;99.26
70851;DHT22;58475;49.662;9.636;2022-11-18T05:38:36;8.20;99.41
70851;DHT22;58475;49.662;9.636;2022-11-18T05:41:02;8.22;99.13
70851;DHT22;58475;49.662;9.636;2022-11-18T05:43:28;8.25;99.18
70851;DHT22;58475;49.662;9.636;2022-11-18T05:45:54;8.31;99.26
70851;DHT22;58475;49.662;9.636;2022-11-18T05:48:20;8.29;99.22
70851;DHT22;58475;49.662;9.636;2022-11-18T05:50:50;8.29;98.97
70851;DHT22;58475;49.662;9.636;2022-11-18T05:53:17;8.32;98.59
70851;DHT22;58475;49.662;9.636;2022-11-18T05:58:12;8.38;98.89
70851;DHT22;58475;49.662;9.636;2022-11-18T06:00:38;8.33;99.03
70851;DHT22;58475;49.662;9.636;2022-11-18T06:03:08;8.49;97.41
70851;DHT22;58475;49.662;9.636;2022-11-18T06:05:37;8.57;97.07
70851;DHT22;58475;49.662;9.636;2022-11-18T06:08:02;8.55;97.02
70851;DHT22;58475;49.662;9.636;2022-11-18T06:10:31;8.60;97.25
70851;DHT22;58475;49.662;9.636;2022-11-18T06:13:00;8.60;97.27
70851;DHT22;58475;49.662;9.636;2022-11-18T06:15:31;8.60;96.76
70851;DHT22;58475;49.662;9.636;2022-11-18T06:18:01;8.53;97.12
70851;DHT22;58475;49.662;9.636;2022-11-18T06:20:28;8.56;96.54
70851;DHT22;58475;49.662;9.636;2022-11-18T06:22:55;8.52;96.82
70851;DHT22;58475;49.662;9.636;2022-11-18T06:25:22;8.46;97.28
70851;DHT22;58475;49.662;9.636;2022-11-18T06:27:49;8.57;96.43
70851;DHT22;58475;49.662;9.636;2022-11-18T06:30:15;8.55;96.32
70851;DHT22;58475;49.662;9.636;2022-11-18T06:32:41;8.52;96.55
70851;DHT22;58475;49.662;9.636;2022-11-18T06:35:10;8.50;96.31
70851;DHT22;58475;49.662;9.636;2022-11-18T06:37:36;8.52;96.62
70851;DHT22;58475;49.662;9.636;2022-11-18T06:40:04;8.49;96.35
70851;DHT22;58475;49.662;9.636;2022-11-18T06:42:30;8.46;96.74
70851;DHT22;58475;49.662;9.636;2022-11-18T06:45:14;8.52;96.19
70851;DHT22;58475;49.662;9.636;2022-11-18T06:47:39;8.45;96.27
70851;DHT22;58475;49.662;9.636;2022-11-18T06:50:05;8.52;95.12
70851;DHT22;58475;49.662;9.636;2022-11-18T06:52:31;8.46;95.66
70851;DHT22;58475;49.662;9.636;2022-11-18T06:54:57;8.42;95.75
70851;DHT22;58475;49.662;9.636;2022-11-18T06:57:23;8.43;95.97
70851;DHT22;58475;49.662;9.636;2022-11-18T06:59:49;8.48;95.13
70851;DHT22;58475;49.662;9.636;2022-11-18T07:02:15;8.38;96.13
70851;DHT22;58475;49.662;9.636;2022-11-18T07:04:43;8.42;95.19
70851;DHT22;58475;49.662;9.636;2022-11-18T07:07:09;8.35;96.25
70851;DHT22;58475;49.662;9.636;2022-11-18T07:09:35;8.35;95.61
70851;DHT22;58475;49.662;9.636;2022-11-18T07:12:02;8.36;95.72
70851;DHT22;58475;49.662;9.636;2022-11-18T07:14:28;8.31;96.51
70851;DHT22;58475;49.662;9.636;2022-11-18T07:16:54;8.26;95.82
70851;DHT22;58475;49.662;9.636;2022-11-18T07:19:19;8.31;96.70
70851;DHT22;58475;49.662;9.636;2022-11-18T07:21:45;8.32;97.62
70851;DHT22;58475;49.662;9.636;2022-11-18T07:24:12;8.21;97.87
70851;DHT22;58475;49.662;9.636;2022-11-18T07:26:38;8.29;97.50
70851;DHT22;58475;49.662;9.636;2022-11-18T07:29:04;8.28;97.00
70851;DHT22;58475;49.662;9.636;2022-11-18T07:31:30;8.22;97.85
70851;DHT22;58475;49.662;9.636;2022-11-18T07:33:56;8.26;98.28
70851;DHT22;58475;49.662;9.636;2022-11-18T07:36:27;8.32;98.07
70851;DHT22;58475;49.662;9.636;2022-11-18T07:38:58;8.32;98.07
70851;DHT22;58475;49.662;9.636;2022-11-18T07:41:26;8.35;97.93
70851;DHT22;58475;49.662;9.636;2022-11-18T07:43:57;8.35;97.58
70851;DHT22;58475;49.662;9.636;2022-11-18T07:46:33;8.32;98.26
70851;DHT22;58475;49.662;9.636;2022-11-18T07:49:01;8.22;98.78
70851;DHT22;58475;49.662;9.636;2022-11-18T07:51:29;8.36;98.58
70851;DHT22;58475;49.662;9.636;2022-11-18T07:53:56;8.32;98.58
70851;DHT22;58475;49.662;9.636;2022-11-18T07:56:22;8.31;98.57
70851;DHT22;58475;49.662;9.636;2022-11-18T07:58:52;8.25;98.97
70851;DHT22;58475;49.662;9.636;2022-11-18T08:01:20;8.24;99.20
70851;DHT22;58475;49.662;9.636;2022-11-18T08:03:46;8.32;99.13
70851;DHT22;58475;49.662;9.636;2022-11-18T08:06:17;8.32;99.07
70851;DHT22;58475;49.662;9.636;2022-11-18T08:08:43;8.39;99.18
70851;DHT22;58475;49.662;9.636;2022-11-18T08:11:11;8.38;99.14
70851;DHT22;58475;49.662;9.636;2022-11-18T08:13:37;8.41;98.97
70851;DHT22;58475;49.662;9.636;2022-11-18T08:16:03;8.42;99.09
70851;DHT22;58475;49.662;9.636;2022-11-18T08:18:31;8.48;99.21
70851;DHT22;58475;49.662;9.636;2022-11-18T08:21:04;8.50;99.20
70851;DHT22;58475;49.662;9.636;2022-11-18T08:23:30;8.55;99.06
70851;DHT22;58475;49.662;9.636;2022-11-18T08:26:05;8.55;98.85
70851;DHT22;58475;49.662;9.636;2022-11-18T08:28:31;8.59;98.89
70851;DHT22;58475;49.662;9.636;2022-11-18T08:30:57;8.57;98.67
70851;DHT22;58475;49.662;9.636;2022-11-18T08:33:23;8.62;98.82
70851;DHT22;58475;49.662;9.636;2022-11-18T08:35:48;8.62;99.02
70851;DHT22;58475;49.662;9.636;2022-11-18T08:38:14;8.59;98.94
70851;DHT22;58475;49.662;9.636;2022-11-18T08:40:42;8.63;99.34
70851;DHT22;58475;49.662;9.636;2022-11-18T08:43:10;8.69;99.29
70851;DHT22;58475;49.662;9.636;2022-11-18T08:45:37;8.74;99.02
70851;DHT22;58475;49.662;9.636;2022-11-18T08:48:03;8.84;99.10
70851;DHT22;58475;49.662;9.636;2022-11-18T08:50:29;8.80;99.08
70851;DHT22;58475;49.662;9.636;2022-11-18T08:52:55;8.73;99.03
70851;DHT22;58475;49.662;9.636;2022-11-18T08:55:20;8.87;98.84
70851;DHT22;58475;49.662;9.636;2022-11-18T08:57:46;8.87;98.79
70851;DHT22;58475;49.662;9.636;2022-11-18T09:00:12;8.93;98.73
70851;DHT22;58475;49.662;9.636;2022-11-18T09:02:38;8.94;98.63
70851;DHT22;58475;49.662;9.636;2022-11-18T09:05:04;8.99;98.57
70851;DHT22;58475;49.662;9.636;2022-11-18T09:07:29;8.99;98.50
70851;DHT22;58475;49.662;9.636;2022-11-18T09:09:55;9.03;98.54
70851;DHT22;58475;49.662;9.636;2022-11-18T09:12:20;8.99;98.24
70851;DHT22;58475;49.662;9.636;2022-11-18T09:14:46;8.96;98.16
70851;DHT22;58475;49.662;9.636;2022-11-18T09:17:12;8.90;98.48
70851;DHT22;58475;49.662;9.636;2022-11-18T09:19:39;9.03;96.96
70851;DHT22;58475;49.662;9.636;2022-11-18T09:22:05;9.01;97.12
70851;DHT22;58475;49.662;9.636;2022-11-18T09:24:31;9.01;96.67
70851;DHT22;58475;49.662;9.636;2022-11-18T09:26:56;9.13;97.84
70851;DHT22;58475;49.662;9.636;2022-11-18T09:29:22;9.23;95.52
70851;DHT22;58475;49.662;9.636;2022-11-18T09:31:51;9.41;96.66
70851;DHT22;58475;49.662;9.636;2022-11-18T09:34:17;9.39;94.91
70851;DHT22;58475;49.662;9.636;2022-11-18T09:36:43;9.45;95.74
70851;DHT22;58475;49.662;9.636;2022-11-18T09:39:08;9.53;96.66
70851;DHT22;58475;49.662;9.636;2022-11-18T09:41:59;9.49;95.56
70851;DHT22;58475;49.662;9.636;2022-11-18T09:47:30;9.41;94.83
70851;DHT22;58475;49.662;9.636;2022-11-18T09:49:59;9.45;96.65
70851;DHT22;58475;49.662;9.636;2022-11-18T09:52:36;9.42;95.88
70851;DHT22;58475;49.662;9.636;2022-11-18T09:55:10;9.41;95.08
70851;DHT22;58475;49.662;9.636;2022-11-18T09:57:39;9.32;96.17
70851;DHT22;58475;49.662;9.636;2022-11-18T10:00:26;9.32;95.48
70851;DHT22;58475;49.662;9.636;2022-11-18T10:03:06;9.28;95.81
70851;DHT22;58475;49.662;9.636;2022-11-18T10:05:50;9.34;96.67
70851;DHT22;58475;49.662;9.636;2022-11-18T10:08:24;9.39;96.23
70851;DHT22;58475;49.662;9.636;2022-11-18T10:16:28;9.44;93.92
70851;DHT22;58475;49.662;9.636;2022-11-18T10:22:03;9.52;95.37
70851;DHT22;58475;49.662;9.636;2022-11-18T10:24:58;9.56;95.20
70851;DHT22;58475;49.662;9.636;2022-11-18T10:27:38;9.58;94.28
70851;DHT22;58475;49.662;9.636;2022-11-18T10:30:11;9.49;94.65
70851;DHT22;58475;49.662;9.636;2022-11-18T10:33:00;9.65;94.94
70851;DHT22;58475;49.662;9.636;2022-11-18T10:35:34;9.61;94.28
70851;DHT22;58475;49.662;9.636;2022-11-18T10:38:15;9.63;93.48
70851;DHT22;58475;49.662;9.636;2022-11-18T10:41:02;9.55;93.77
70851;DHT22;58475;49.662;9.636;2022-11-18T10:43:50;9.42;93.22
70851;DHT22;58475;49.662;9.636;2022-11-18T10:51:40;9.49;94.15
70851;DHT22;58475;49.662;9.636;2022-11-18T10:54:22;9.46;94.32
70851;DHT22;58475;49.662;9.636;2022-11-18T10:59:23;9.58;94.45
70851;DHT22;58475;49.662;9.636;2022-11-18T11:02:28;9.65;93.70
70851;DHT22;58475;49.662;9.636;2022-11-18T11:04:56;9.53;92.88
70851;DHT22;58475;49.662;9.636;2022-11-18T11:07:32;9.66;93.49
70851;DHT22;58475;49.662;9.636;2022-11-18T11:12:56;9.71;94.16
70851;DHT22;58475;49.662;9.636;2022-11-18T11:15:37;9.68;93.37
70851;DHT22;58475;49.662;9.636;2022-11-18T11:18:23;9.75;93.62
70851;DHT22;58475;49.662;9.636;2022-11-18T11:21:12;9.62;93.35
70851;DHT22;58475;49.662;9.636;2022-11-18T11:23:38;9.56;93.32
70851;DHT22;58475;49.662;9.636;2022-11-18T11:36:35;9.68;94.49
70851;DHT22;58475;49.662;9.636;2022-11-18T11:44:47;9.66;94.30
70851;DHT22;58475;49.662;9.636;2022-11-18T11:47:38;9.73;95.31
70851;DHT22;58475;49.662;9.636;2022-11-18T12:02:06;9.65;93.65
70851;DHT22;58475;49.662;9.636;2022-11-18T12:04:50;9.81;95.42
70851;DHT22;58475;49.662;9.636;2022-11-18T12:07:20;9.83;93.83
70851;DHT22;58475;49.662;9.636;2022-11-18T12:15:30;9.75;95.32
70851;DHT22;58475;49.662;9.636;2022-11-18T12:20:52;9.76;95.09
70851;DHT22;58475;49.662;9.636;2022-11-18T12:23:22;9.90;94.39
70851;DHT22;58475;49.662;9.636;2022-11-18T12:26:14;9.89;94.16
70851;DHT22;58475;49.662;9.636;2022-11-18T12:31:46;9.87;93.67
70851;DHT22;58475;49.662;9.636;2022-11-18T12:36:51;9.76;95.30
70851;DHT22;58475;49.662;9.636;2022-11-18T12:44:33;9.94;93.22
70851;DHT22;58475;49.662;9.636;2022-11-18T12:47:00;10.02;93.70
70851;DHT22;58475;49.662;9.636;2022-11-18T12:52:00;10.45;95.53
70851;DHT22;58475;49.662;9.636;2022-11-18T12:54:33;10.52;95.26
70851;DHT22;58475;49.662;9.636;2022-11-18T12:59:46;10.69;93.58
70851;DHT22;58475;49.662;9.636;2022-11-18T13:02:23;10.62;92.48
70851;DHT22;58475;49.662;9.636;2022-11-18T13:05:11;10.58;93.60
70851;DHT22;58475;49.662;9.636;2022-11-18T13:07:44;10.47;91.30
70851;DHT22;58475;49.662;9.636;2022-11-18T13:10:31;10.55;94.23
70851;DHT22;58475;49.662;9.636;2022-11-18T13:12:58;10.52;92.62
70851;DHT22;58475;49.662;9.636;2022-11-18T13:15:24;10.64;93.59
70851;DHT22;58475;49.662;9.636;2022-11-18T13:18:17;10.61;93.40
70851;DHT22;58475;49.662;9.636;2022-11-18T13:20:54;10.68;93.64
70851;DHT22;58475;49.662;9.636;2022-11-18T13:26:27;10.92;90.30
70851;DHT22;58475;49.662;9.636;2022-11-18T13:32:23;11.43;89.14
70851;DHT22;58475;49.662;9.636;2022-11-18T13:34:51;11.53;88.92
70851;DHT22;58475;49.662;9.636;2022-11-18T13:37:25;11.49;89.37
70851;DHT22;58475;49.662;9.636;2022-11-18T13:39:51;11.34;90.06
70851;DHT22;58475;49.662;9.636;2022-11-18T13:42:25;11.19;89.34
70851;DHT22;58475;49.662;9.636;2022-11-18T13:45:02;11.08;91.97
70851;DHT22;58475;49.662;9.636;2022-11-18T13:47:48;11.01;88.98
70851;DHT22;58475;49.662;9.636;2022-11-18T13:50:23;11.12;89.91
70851;DHT22;58475;49.662;9.636;2022-11-18T13:55:33;11.61;90.65
70851;DHT22;58475;49.662;9.636;2022-11-18T14:00:27;11.16;90.36
70851;DHT22;58475;49.662;9.636;2022-11-18T14:02:56;11.22;91.26
70851;DHT22;58475;49.662;9.636;2022-11-18T14:05:24;11.30;89.48
70851;DHT22;58475;49.662;9.636;2022-11-18T14:10:40;11.60;89.79
70851;DHT22;58475;49.662;9.636;2022-11-18T14:13:19;11.46;88.52
70851;DHT22;58475;49.662;9.636;2022-11-18T14:15:46;11.43;89.60
70851;DHT22;58475;49.662;9.636;2022-11-18T14:18:27;11.39;88.63
70851;DHT22;58475;49.662;9.636;2022-11-18T14:20:54;11.36;88.97
70851;DHT22;58475;49.662;9.636;2022-11-18T14:23:33;11.40;88.38
70851;DHT22;58475;49.662;9.636;2022-11-18T14:26:02;11.39;89.70
70851;DHT22;58475;49.662;9.636;2022-11-18T14:28:30;11.16;89.76
70851;DHT22;58475;49.662;9.636;2022-11-18T14:33:25;10.57;88.38
70851;DHT22;58475;49.662;9.636;2022-11-18T14:35:53;10.43;88.82
70851;DHT22;58475;49.662;9.636;2022-11-18T14:38:41;10.45;88.42
70851;DHT22;58475;49.662;9.636;2022-11-18T14:41:10;10.44;90.43
70851;DHT22;58475;49.662;9.636;2022-11-18T14:43:36;10.37;91.70
70851;DHT22;58475;49.662;9.636;2022-11-18T14:46:19;10.23;90.22
70851;DHT22;58475;49.662;9.636;2022-11-18T14:48:46;10.25;90.60
70851;DHT22;58475;49.662;9.636;2022-11-18T14:51:15;10.18;89.63
70851;DHT22;58475;49.662;9.636;2022-11-18T14:53:42;10.24;89.90
70851;DHT22;58475;49.662;9.636;2022-11-18T14:56:19;10.20;89.77
70851;DHT22;58475;49.662;9.636;2022-11-18T14:58:48;9.99;91.62
70851;DHT22;58475;49.662;9.636;2022-11-18T15:01:14;9.96;90.76
70851;DHT22;58475;49.662;9.636;2022-11-18T15:03:41;9.85;91.69
70851;DHT22;58475;49.662;9.636;2022-11-18T15:06:16;9.78;90.95
70851;DHT22;58475;49.662;9.636;2022-11-18T15:08:43;9.62;92.11
70851;DHT22;58475;49.662;9.636;2022-11-18T15:11:09;9.66;91.11
70851;DHT22;58475;49.662;9.636;2022-11-18T15:13:36;9.59;91.43
70851;DHT22;58475;49.662;9.636;2022-11-18T15:18:43;9.41;92.13
70851;DHT22;58475;49.662;9.636;2022-11-18T15:21:09;9.28;93.67
70851;DHT22;58475;49.662;9.636;2022-11-18T15:23:36;9.21;94.50
70851;DHT22;58475;49.662;9.636;2022-11-18T15:26:02;9.08;94.49
70851;DHT22;58475;49.662;9.636;2022-11-18T15:28:34;8.93;95.72
70851;DHT22;58475;49.662;9.636;2022-11-18T15:31:00;8.74;95.92
70851;DHT22;58475;49.662;9.636;2022-11-18T15:33:25;8.49;96.88
70851;DHT22;58475;49.662;9.636;2022-11-18T15:35:51;8.48;96.47
70851;DHT22;58475;49.662;9.636;2022-11-18T15:38:16;8.38;96.58
70851;DHT22;58475;49.662;9.636;2022-11-18T15:40:43;8.14;96.89
70851;DHT22;58475;49.662;9.636;2022-11-18T15:43:09;8.15;96.82
70851;DHT22;58475;49.662;9.636;2022-11-18T15:45:34;7.99;96.98
70851;DHT22;58475;49.662;9.636;2022-11-18T15:48:00;8.06;97.05
70851;DHT22;58475;49.662;9.636;2022-11-18T15:50:25;7.88;96.84
70851;DHT22;58475;49.662;9.636;2022-11-18T15:52:51;7.94;96.91
70851;DHT22;58475;49.662;9.636;2022-11-18T15:55:19;7.88;96.48
70851;DHT22;58475;49.662;9.636;2022-11-18T15:57:45;7.83;96.76
70851;DHT22;58475;49.662;9.636;2022-11-18T16:00:11;7.94;95.56
70851;DHT22;58475;49.662;9.636;2022-11-18T16:02:39;7.98;95.40
70851;DHT22;58475;49.662;9.636;2022-11-18T16:05:08;7.88;95.75
70851;DHT22;58475;49.662;9.636;2022-11-18T16:07:34;7.78;95.93
70851;DHT22;58475;49.662;9.636;2022-11-18T16:09:59;7.70;96.41
70851;DHT22;58475;49.662;9.636;2022-11-18T16:12:43;7.71;96.59
70851;DHT22;58475;49.662;9.636;2022-11-18T16:15:13;7.69;96.39
70851;DHT22;58475;49.662;9.636;2022-11-18T16:17:57;7.36;96.55
70851;DHT22;58475;49.662;9.636;2022-11-18T16:20:24;7.23;96.91
70851;DHT22;58475;49.662;9.636;2022-11-18T16:22:50;7.26;97.05
70851;DHT22;58475;49.662;9.636;2022-11-18T16:25:19;7.39;97.00
70851;DHT22;58475;49.662;9.636;2022-11-18T16:27:45;7.37;97.28
70851;DHT22;58475;49.662;9.636;2022-11-18T16:30:12;7.26;97.65
70851;DHT22;58475;49.662;9.636;2022-11-18T16:32:57;7.05;97.78
70851;DHT22;58475;49.662;9.636;2022-11-18T16:35:23;7.09;97.86
70851;DHT22;58475;49.662;9.636;2022-11-18T16:37:49;7.01;98.49
70851;DHT22;58475;49.662;9.636;2022-11-18T16:40:15;7.15;98.10
70851;DHT22;58475;49.662;9.636;2022-11-18T16:42:41;7.25;97.73
70851;DHT22;58475;49.662;9.636;2022-11-18T16:45:06;7.29;97.52
70851;DHT22;58475;49.662;9.636;2022-11-18T16:47:32;7.33;97.38
70851;DHT22;58475;49.662;9.636;2022-11-18T16:49:57;7.36;97.15
70851;DHT22;58475;49.662;9.636;2022-11-18T16:52:23;7.40;97.28
70851;DHT22;58475;49.662;9.636;2022-11-18T16:54:48;7.46;96.85
70851;DHT22;58475;49.662;9.636;2022-11-18T16:57:14;7.54;96.44
70851;DHT22;58475;49.662;9.636;2022-11-18T16:59:40;7.53;97.16
70851;DHT22;58475;49.662;9.636;2022-11-18T17:02:06;7.37;97.48
70851;DHT22;58475;49.662;9.636;2022-11-18T17:04:31;7.20;97.87
70851;DHT22;58475;49.662;9.636;2022-11-18T17:06:59;7.16;97.94
70851;DHT22;58475;49.662;9.636;2022-11-18T17:09:26;7.01;98.00
70851;DHT22;58475;49.662;9.636;2022-11-18T17:11:53;7.13;98.00
70851;DHT22;58475;49.662;9.636;2022-11-18T17:14:19;7.13;97.95
70851;DHT22;58475;49.662;9.636;2022-11-18T17:16:46;7.12;98.05
70851;DHT22;58475;49.662;9.636;2022-11-18T17:19:16;7.15;98.00
70851;DHT22;58475;49.662;9.636;2022-11-18T17:21:43;7.19;98.16
70851;DHT22;58475;49.662;9.636;2022-11-18T17:24:14;7.19;97.99
70851;DHT22;58475;49.662;9.636;2022-11-18T17:26:41;7.25;97.82
70851;DHT22;58475;49.662;9.636;2022-11-18T17:29:10;7.30;97.11
70851;DHT22;58475;49.662;9.636;2022-11-18T17:31:37;7.19;97.68
70851;DHT22;58475;49.662;9.636;2022-11-18T17:34:03;7.30;96.65
70851;DHT22;58475;49.662;9.636;2022-11-18T17:36:31;7.18;97.20
70851;DHT22;58475;49.662;9.636;2022-11-18T17:38:59;7.11;97.57
70851;DHT22;58475;49.662;9.636;2022-11-18T17:41:26;6.91;97.41
70851;DHT22;58475;49.662;9.636;2022-11-18T17:44:13;6.81;97.78
70851;DHT22;58475;49.662;9.636;2022-11-18T17:46:39;7.20;96.19
70851;DHT22;58475;49.662;9.636;2022-11-18T17:49:15;6.98;97.07
70851;DHT22;58475;49.662;9.636;2022-11-18T17:51:42;7.11;96.82
70851;DHT22;58475;49.662;9.636;2022-11-18T17:54:10;6.91;97.33
70851;DHT22;58475;49.662;9.636;2022-11-18T17:56:37;6.73;97.67
70851;DHT22;58475;49.662;9.636;2022-11-18T17:59:03;6.82;97.90